sensor_id;sensor_type;location;lat;lon;timestamp;P1;durP1;ratioP1;P2;durP2;ratioP2
26163;SDS011;13914;48.178;11.716;2022-09-09T00:00:31;6.05;;;0.98;;
26163;SDS011;13914;48.178;11.716;2022-09-09T00:03:14;5.25;;;0.75;;
26163;SDS011;13914;48.178;11.716;2022-09-09T00:08:22;5.57;;;0.88;;
26163;SDS011;13914;48.178;11.716;2022-09-09T00:11:01;4.53;;;1.00;;
26163;SDS011;13914;48.178;11.716;2022-09-09T00:13:32;8.70;;;1.23;;
26163;SDS011;13914;48.178;11.716;2022-09-09T00:21:39;9.40;;;1.25;;
26163;SDS011;13914;48.178;11.716;2022-09-09T00:27:29;6.18;;;1.00;;
26163;SDS011;13914;48.178;11.716;2022-09-09T00:30:17;2.30;;;0.93;;
26163;SDS011;13914;48.178;11.716;2022-09-09T00:32:46;7.97;;;1.20;;
26163;SDS011;13914;48.178;11.716;2022-09-09T00:35:24;5.00;;;1.00;;
26163;SDS011;13914;48.178;11.716;2022-09-09T00:38:00;9.70;;;1.40;;
26163;SDS011;13914;48.178;11.716;2022-09-09T00:40:38;6.60;;;0.80;;
26163;SDS011;13914;48.178;11.716;2022-09-09T00:43:28;5.53;;;0.95;;
26163;SDS011;13914;48.178;11.716;2022-09-09T00:54:39;10.13;;;1.10;;
26163;SDS011;13914;48.178;11.716;2022-09-09T00:57:26;7.82;;;0.82;;
26163;SDS011;13914;48.178;11.716;2022-09-09T00:59:59;9.60;;;1.33;;
26163;SDS011;13914;48.178;11.716;2022-09-09T01:08:02;9.85;;;1.33;;
26163;SDS011;13914;48.178;11.716;2022-09-09T01:10:56;6.32;;;0.98;;
26163;SDS011;13914;48.178;11.716;2022-09-09T01:13:28;2.88;;;0.82;;
26163;SDS011;13914;48.178;11.716;2022-09-09T01:15:59;5.00;;;1.00;;
26163;SDS011;13914;48.178;11.716;2022-09-09T01:18:29;4.45;;;0.90;;
26163;SDS011;13914;48.178;11.716;2022-09-09T01:24:01;5.20;;;0.90;;
26163;SDS011;13914;48.178;11.716;2022-09-09T01:26:52;6.75;;;1.00;;
26163;SDS011;13914;48.178;11.716;2022-09-09T01:29:24;3.75;;;0.82;;
26163;SDS011;13914;48.178;11.716;2022-09-09T01:31:54;12.52;;;1.13;;
26163;SDS011;13914;48.178;11.716;2022-09-09T01:34:33;11.90;;;1.20;;
26163;SDS011;13914;48.178;11.716;2022-09-09T01:37:07;7.03;;;0.98;;
26163;SDS011;13914;48.178;11.716;2022-09-09T01:39:36;3.15;;;0.80;;
26163;SDS011;13914;48.178;11.716;2022-09-09T01:42:04;8.55;;;1.02;;
26163;SDS011;13914;48.178;11.716;2022-09-09T01:44:34;8.00;;;1.55;;
26163;SDS011;13914;48.178;11.716;2022-09-09T01:47:02;4.55;;;0.90;;
26163;SDS011;13914;48.178;11.716;2022-09-09T01:49:28;3.47;;;1.00;;
26163;SDS011;13914;48.178;11.716;2022-09-09T01:51:55;9.50;;;0.73;;
26163;SDS011;13914;48.178;11.716;2022-09-09T01:54:23;4.53;;;0.90;;
26163;SDS011;13914;48.178;11.716;2022-09-09T02:05:40;2.08;;;0.73;;
26163;SDS011;13914;48.178;11.716;2022-09-09T02:08:14;4.82;;;0.80;;
26163;SDS011;13914;48.178;11.716;2022-09-09T02:10:56;3.80;;;0.82;;
26163;SDS011;13914;48.178;11.716;2022-09-09T02:13:32;5.60;;;0.88;;
26163;SDS011;13914;48.178;11.716;2022-09-09T02:16:04;3.63;;;0.77;;
26163;SDS011;13914;48.178;11.716;2022-09-09T02:18:52;6.80;;;1.00;;
26163;SDS011;13914;48.178;11.716;2022-09-09T02:21:25;6.75;;;1.00;;
26163;SDS011;13914;48.178;11.716;2022-09-09T02:23:57;8.55;;;0.82;;
26163;SDS011;13914;48.178;11.716;2022-09-09T02:26:29;2.28;;;0.90;;
26163;SDS011;13914;48.178;11.716;2022-09-09T02:29:03;5.15;;;0.82;;
26163;SDS011;13914;48.178;11.716;2022-09-09T02:31:37;10.50;;;0.80;;
26163;SDS011;13914;48.178;11.716;2022-09-09T02:34:05;4.95;;;0.90;;
26163;SDS011;13914;48.178;11.716;2022-09-09T02:36:35;6.82;;;1.15;;
26163;SDS011;13914;48.178;11.716;2022-09-09T02:39:05;5.97;;;1.05;;
26163;SDS011;13914;48.178;11.716;2022-09-09T02:41:34;3.53;;;0.95;;
26163;SDS011;13914;48.178;11.716;2022-09-09T02:44:13;6.13;;;0.70;;
26163;SDS011;13914;48.178;11.716;2022-09-09T02:49:40;4.90;;;0.80;;
26163;SDS011;13914;48.178;11.716;2022-09-09T02:52:15;3.22;;;2.35;;
26163;SDS011;13914;48.178;11.716;2022-09-09T02:54:44;1.77;;;0.60;;
26163;SDS011;13914;48.178;11.716;2022-09-09T02:59:44;2.95;;;0.73;;
26163;SDS011;13914;48.178;11.716;2022-09-09T03:02:10;2.03;;;0.70;;
26163;SDS011;13914;48.178;11.716;2022-09-09T03:04:38;6.03;;;0.70;;
26163;SDS011;13914;48.178;11.716;2022-09-09T03:07:05;3.92;;;0.95;;
26163;SDS011;13914;48.178;11.716;2022-09-09T03:09:30;1.60;;;0.60;;
26163;SDS011;13914;48.178;11.716;2022-09-09T03:11:57;4.60;;;0.70;;
26163;SDS011;13914;48.178;11.716;2022-09-09T03:14:24;6.53;;;0.93;;
26163;SDS011;13914;48.178;11.716;2022-09-09T03:16:50;6.95;;;0.80;;
26163;SDS011;13914;48.178;11.716;2022-09-09T03:19:17;3.05;;;0.63;;
26163;SDS011;13914;48.178;11.716;2022-09-09T03:21:44;1.60;;;0.63;;
26163;SDS011;13914;48.178;11.716;2022-09-09T03:24:11;2.95;;;0.65;;
26163;SDS011;13914;48.178;11.716;2022-09-09T03:26:37;4.07;;;0.60;;
26163;SDS011;13914;48.178;11.716;2022-09-09T03:29:03;3.70;;;0.82;;
26163;SDS011;13914;48.178;11.716;2022-09-09T03:31:31;3.63;;;0.60;;
26163;SDS011;13914;48.178;11.716;2022-09-09T03:33:58;3.50;;;0.70;;
26163;SDS011;13914;48.178;11.716;2022-09-09T03:36:25;1.60;;;0.70;;
26163;SDS011;13914;48.178;11.716;2022-09-09T03:38:52;2.53;;;0.70;;
26163;SDS011;13914;48.178;11.716;2022-09-09T03:41:19;3.85;;;0.77;;
26163;SDS011;13914;48.178;11.716;2022-09-09T03:43:49;3.53;;;0.75;;
26163;SDS011;13914;48.178;11.716;2022-09-09T03:46:16;1.00;;;0.50;;
26163;SDS011;13914;48.178;11.716;2022-09-09T03:48:43;3.13;;;0.65;;
26163;SDS011;13914;48.178;11.716;2022-09-09T03:51:09;4.65;;;0.93;;
26163;SDS011;13914;48.178;11.716;2022-09-09T03:53:35;6.25;;;0.93;;
26163;SDS011;13914;48.178;11.716;2022-09-09T03:56:03;3.85;;;1.10;;
26163;SDS011;13914;48.178;11.716;2022-09-09T03:58:32;1.70;;;0.63;;
26163;SDS011;13914;48.178;11.716;2022-09-09T04:01:06;3.95;;;0.80;;
26163;SDS011;13914;48.178;11.716;2022-09-09T04:03:35;1.40;;;0.52;;
26163;SDS011;13914;48.178;11.716;2022-09-09T04:06:02;2.88;;;0.68;;
26163;SDS011;13914;48.178;11.716;2022-09-09T04:08:30;2.53;;;0.70;;
26163;SDS011;13914;48.178;11.716;2022-09-09T04:10:56;2.58;;;0.55;;
26163;SDS011;13914;48.178;11.716;2022-09-09T04:13:23;3.20;;;0.70;;
26163;SDS011;13914;48.178;11.716;2022-09-09T04:15:51;3.65;;;0.90;;
26163;SDS011;13914;48.178;11.716;2022-09-09T04:18:21;7.78;;;0.80;;
26163;SDS011;13914;48.178;11.716;2022-09-09T04:20:48;3.40;;;0.63;;
26163;SDS011;13914;48.178;11.716;2022-09-09T04:23:16;3.88;;;0.80;;
26163;SDS011;13914;48.178;11.716;2022-09-09T04:25:46;2.47;;;0.77;;
26163;SDS011;13914;48.178;11.716;2022-09-09T04:28:18;4.07;;;0.70;;
26163;SDS011;13914;48.178;11.716;2022-09-09T04:30:46;2.03;;;0.73;;
26163;SDS011;13914;48.178;11.716;2022-09-09T04:33:12;3.13;;;0.57;;
26163;SDS011;13914;48.178;11.716;2022-09-09T04:35:39;4.35;;;0.70;;
26163;SDS011;13914;48.178;11.716;2022-09-09T04:38:14;1.83;;;0.50;;
26163;SDS011;13914;48.178;11.716;2022-09-09T04:40:43;2.22;;;0.88;;
26163;SDS011;13914;48.178;11.716;2022-09-09T04:43:11;4.93;;;0.93;;
26163;SDS011;13914;48.178;11.716;2022-09-09T04:45:39;2.60;;;0.70;;
26163;SDS011;13914;48.178;11.716;2022-09-09T04:48:06;3.10;;;0.80;;
26163;SDS011;13914;48.178;11.716;2022-09-09T04:50:32;2.28;;;0.70;;
26163;SDS011;13914;48.178;11.716;2022-09-09T04:55:26;1.00;;;0.63;;
26163;SDS011;13914;48.178;11.716;2022-09-09T04:57:52;3.85;;;0.95;;
26163;SDS011;13914;48.178;11.716;2022-09-09T05:05:10;3.20;;;0.70;;
26163;SDS011;13914;48.178;11.716;2022-09-09T05:07:36;1.02;;;0.40;;
26163;SDS011;13914;48.178;11.716;2022-09-09T05:10:02;2.13;;;0.60;;
26163;SDS011;13914;48.178;11.716;2022-09-09T05:12:30;6.20;;;0.73;;
26163;SDS011;13914;48.178;11.716;2022-09-09T05:14:56;3.03;;;0.77;;
26163;SDS011;13914;48.178;11.716;2022-09-09T05:17:22;2.53;;;0.73;;
26163;SDS011;13914;48.178;11.716;2022-09-09T05:22:18;1.70;;;0.57;;
26163;SDS011;13914;48.178;11.716;2022-09-09T05:24:45;1.58;;;0.73;;
26163;SDS011;13914;48.178;11.716;2022-09-09T05:27:11;1.50;;;0.80;;
26163;SDS011;13914;48.178;11.716;2022-09-09T05:29:37;7.32;;;0.90;;
26163;SDS011;13914;48.178;11.716;2022-09-09T05:32:04;1.20;;;0.70;;
26163;SDS011;13914;48.178;11.716;2022-09-09T05:34:30;6.82;;;0.85;;
26163;SDS011;13914;48.178;11.716;2022-09-09T05:36:55;2.70;;;0.57;;
26163;SDS011;13914;48.178;11.716;2022-09-09T05:39:21;4.50;;;0.68;;
26163;SDS011;13914;48.178;11.716;2022-09-09T05:41:47;1.27;;;0.60;;
26163;SDS011;13914;48.178;11.716;2022-09-09T05:44:12;2.13;;;0.68;;
26163;SDS011;13914;48.178;11.716;2022-09-09T05:46:38;1.00;;;0.70;;
26163;SDS011;13914;48.178;11.716;2022-09-09T05:49:04;4.47;;;0.65;;
26163;SDS011;13914;48.178;11.716;2022-09-09T05:51:31;2.00;;;0.80;;
26163;SDS011;13914;48.178;11.716;2022-09-09T05:53:57;2.33;;;1.00;;
26163;SDS011;13914;48.178;11.716;2022-09-09T05:56:24;3.10;;;1.08;;
26163;SDS011;13914;48.178;11.716;2022-09-09T05:58:53;3.17;;;0.82;;
26163;SDS011;13914;48.178;11.716;2022-09-09T06:01:21;3.55;;;0.80;;
26163;SDS011;13914;48.178;11.716;2022-09-09T06:03:49;2.83;;;0.65;;
26163;SDS011;13914;48.178;11.716;2022-09-09T06:06:17;5.07;;;0.70;;
26163;SDS011;13914;48.178;11.716;2022-09-09T06:08:50;3.90;;;0.55;;
26163;SDS011;13914;48.178;11.716;2022-09-09T06:11:19;2.67;;;0.80;;
26163;SDS011;13914;48.178;11.716;2022-09-09T06:13:51;2.42;;;0.68;;
26163;SDS011;13914;48.178;11.716;2022-09-09T06:16:19;5.35;;;1.13;;
26163;SDS011;13914;48.178;11.716;2022-09-09T06:18:50;2.42;;;0.80;;
26163;SDS011;13914;48.178;11.716;2022-09-09T06:21:22;2.00;;;0.95;;
26163;SDS011;13914;48.178;11.716;2022-09-09T06:23:51;3.63;;;1.15;;
26163;SDS011;13914;48.178;11.716;2022-09-09T06:26:21;3.20;;;0.75;;
26163;SDS011;13914;48.178;11.716;2022-09-09T06:28:53;2.25;;;0.85;;
26163;SDS011;13914;48.178;11.716;2022-09-09T06:31:24;1.88;;;0.60;;
26163;SDS011;13914;48.178;11.716;2022-09-09T06:33:53;1.80;;;0.70;;
26163;SDS011;13914;48.178;11.716;2022-09-09T06:36:21;2.03;;;0.60;;
26163;SDS011;13914;48.178;11.716;2022-09-09T06:38:54;3.00;;;0.68;;
26163;SDS011;13914;48.178;11.716;2022-09-09T06:41:23;0.50;;;0.30;;
26163;SDS011;13914;48.178;11.716;2022-09-09T06:43:52;1.52;;;0.65;;
26163;SDS011;13914;48.178;11.716;2022-09-09T06:46:18;2.65;;;0.75;;
26163;SDS011;13914;48.178;11.716;2022-09-09T06:48:47;3.80;;;0.50;;
26163;SDS011;13914;48.178;11.716;2022-09-09T06:53:41;2.33;;;0.63;;
26163;SDS011;13914;48.178;11.716;2022-09-09T06:58:35;2.03;;;0.70;;
26163;SDS011;13914;48.178;11.716;2022-09-09T07:01:08;4.13;;;0.70;;
26163;SDS011;13914;48.178;11.716;2022-09-09T07:08:26;4.10;;;0.95;;
26163;SDS011;13914;48.178;11.716;2022-09-09T07:10:53;1.95;;;0.60;;
26163;SDS011;13914;48.178;11.716;2022-09-09T07:13:25;0.90;;;0.57;;
26163;SDS011;13914;48.178;11.716;2022-09-09T07:15:52;3.90;;;1.00;;
26163;SDS011;13914;48.178;11.716;2022-09-09T07:18:19;7.60;;;0.95;;
26163;SDS011;13914;48.178;11.716;2022-09-09T07:20:54;4.22;;;0.68;;
26163;SDS011;13914;48.178;11.716;2022-09-09T07:23:22;2.67;;;0.50;;
26163;SDS011;13914;48.178;11.716;2022-09-09T07:25:49;2.25;;;0.80;;
26163;SDS011;13914;48.178;11.716;2022-09-09T07:28:16;2.03;;;0.73;;
26163;SDS011;13914;48.178;11.716;2022-09-09T07:30:42;1.40;;;0.70;;
26163;SDS011;13914;48.178;11.716;2022-09-09T07:33:08;0.80;;;0.47;;
26163;SDS011;13914;48.178;11.716;2022-09-09T07:38:02;2.92;;;0.70;;
26163;SDS011;13914;48.178;11.716;2022-09-09T07:40:29;2.85;;;0.63;;
26163;SDS011;13914;48.178;11.716;2022-09-09T07:42:56;4.53;;;1.40;;
26163;SDS011;13914;48.178;11.716;2022-09-09T07:45:21;2.45;;;0.77;;
26163;SDS011;13914;48.178;11.716;2022-09-09T07:47:47;7.47;;;0.90;;
26163;SDS011;13914;48.178;11.716;2022-09-09T07:50:13;5.88;;;1.15;;
26163;SDS011;13914;48.178;11.716;2022-09-09T07:52:40;2.92;;;0.77;;
26163;SDS011;13914;48.178;11.716;2022-09-09T07:55:06;5.68;;;1.60;;
26163;SDS011;13914;48.178;11.716;2022-09-09T07:57:31;4.88;;;1.00;;
26163;SDS011;13914;48.178;11.716;2022-09-09T07:59:57;5.18;;;0.95;;
26163;SDS011;13914;48.178;11.716;2022-09-09T08:02:23;4.38;;;1.42;;
26163;SDS011;13914;48.178;11.716;2022-09-09T08:04:50;6.53;;;1.00;;
26163;SDS011;13914;48.178;11.716;2022-09-09T08:07:16;3.80;;;1.10;;
26163;SDS011;13914;48.178;11.716;2022-09-09T08:09:43;6.72;;;0.73;;
26163;SDS011;13914;48.178;11.716;2022-09-09T08:12:08;5.43;;;1.08;;
26163;SDS011;13914;48.178;11.716;2022-09-09T08:14:38;2.47;;;1.00;;
26163;SDS011;13914;48.178;11.716;2022-09-09T08:17:05;2.75;;;1.02;;
26163;SDS011;13914;48.178;11.716;2022-09-09T08:19:31;4.10;;;0.90;;
26163;SDS011;13914;48.178;11.716;2022-09-09T08:22:01;7.35;;;1.63;;
26163;SDS011;13914;48.178;11.716;2022-09-09T08:24:28;3.15;;;0.85;;
26163;SDS011;13914;48.178;11.716;2022-09-09T08:26:54;2.40;;;0.82;;
26163;SDS011;13914;48.178;11.716;2022-09-09T08:29:22;4.28;;;1.35;;
26163;SDS011;13914;48.178;11.716;2022-09-09T08:34:16;2.92;;;0.85;;
26163;SDS011;13914;48.178;11.716;2022-09-09T08:36:45;5.60;;;0.95;;
26163;SDS011;13914;48.178;11.716;2022-09-09T08:39:14;3.75;;;1.00;;
26163;SDS011;13914;48.178;11.716;2022-09-09T08:48:19;2.50;;;0.73;;
26163;SDS011;13914;48.178;11.716;2022-09-09T08:51:07;1.17;;;0.70;;
26163;SDS011;13914;48.178;11.716;2022-09-09T08:53:44;1.17;;;0.60;;
26163;SDS011;13914;48.178;11.716;2022-09-09T08:56:16;3.35;;;0.80;;
26163;SDS011;13914;48.178;11.716;2022-09-09T08:58:50;3.95;;;1.00;;
26163;SDS011;13914;48.178;11.716;2022-09-09T09:01:33;3.17;;;0.70;;
26163;SDS011;13914;48.178;11.716;2022-09-09T09:16:00;5.45;;;0.95;;
26163;SDS011;13914;48.178;11.716;2022-09-09T09:18:41;4.30;;;0.88;;
26163;SDS011;13914;48.178;11.716;2022-09-09T09:23:45;2.25;;;1.00;;
26163;SDS011;13914;48.178;11.716;2022-09-09T09:26:26;2.70;;;1.05;;
26163;SDS011;13914;48.178;11.716;2022-09-09T09:29:08;5.15;;;1.42;;
26163;SDS011;13914;48.178;11.716;2022-09-09T09:31:45;5.13;;;1.20;;
26163;SDS011;13914;48.178;11.716;2022-09-09T09:34:24;2.80;;;1.13;;
26163;SDS011;13914;48.178;11.716;2022-09-09T09:36:54;6.35;;;1.30;;
26163;SDS011;13914;48.178;11.716;2022-09-09T09:39:26;5.70;;;1.13;;
26163;SDS011;13914;48.178;11.716;2022-09-09T09:42:07;2.90;;;1.10;;
26163;SDS011;13914;48.178;11.716;2022-09-09T09:44:39;4.00;;;1.45;;
26163;SDS011;13914;48.178;11.716;2022-09-09T09:49:39;3.25;;;1.00;;
26163;SDS011;13914;48.178;11.716;2022-09-09T09:52:21;1.50;;;0.90;;
26163;SDS011;13914;48.178;11.716;2022-09-09T09:54:56;2.58;;;0.80;;
26163;SDS011;13914;48.178;11.716;2022-09-09T09:57:25;2.00;;;1.02;;
26163;SDS011;13914;48.178;11.716;2022-09-09T10:02:46;2.65;;;0.65;;
26163;SDS011;13914;48.178;11.716;2022-09-09T10:05:16;3.28;;;0.70;;
26163;SDS011;13914;48.178;11.716;2022-09-09T10:08:04;4.65;;;1.23;;
26163;SDS011;13914;48.178;11.716;2022-09-09T10:16:01;3.53;;;0.90;;
26163;SDS011;13914;48.178;11.716;2022-09-09T10:18:58;2.60;;;0.90;;
26163;SDS011;13914;48.178;11.716;2022-09-09T10:32:57;2.85;;;0.60;;
26163;SDS011;13914;48.178;11.716;2022-09-09T10:35:54;2.10;;;0.63;;
26163;SDS011;13914;48.178;11.716;2022-09-09T10:41:32;1.63;;;0.57;;
26163;SDS011;13914;48.178;11.716;2022-09-09T10:49:43;2.60;;;0.90;;
26163;SDS011;13914;48.178;11.716;2022-09-09T10:55:25;10.93;;;0.70;;
26163;SDS011;13914;48.178;11.716;2022-09-09T10:58:02;1.33;;;0.70;;
26163;SDS011;13914;48.178;11.716;2022-09-09T11:00:45;3.15;;;0.63;;
26163;SDS011;13914;48.178;11.716;2022-09-09T11:03:19;1.15;;;0.63;;
26163;SDS011;13914;48.178;11.716;2022-09-09T11:06:11;5.25;;;0.60;;
26163;SDS011;13914;48.178;11.716;2022-09-09T11:08:44;2.20;;;0.70;;
26163;SDS011;13914;48.178;11.716;2022-09-09T11:11:19;5.20;;;0.93;;
26163;SDS011;13914;48.178;11.716;2022-09-09T11:16:40;1.75;;;0.60;;
26163;SDS011;13914;48.178;11.716;2022-09-09T11:27:36;1.52;;;0.52;;
26163;SDS011;13914;48.178;11.716;2022-09-09T11:33:58;0.90;;;0.40;;
26163;SDS011;13914;48.178;11.716;2022-09-09T11:36:56;1.15;;;0.43;;
26163;SDS011;13914;48.178;11.716;2022-09-09T11:44:46;2.67;;;0.47;;
26163;SDS011;13914;48.178;11.716;2022-09-09T11:50:10;4.38;;;0.35;;
26163;SDS011;13914;48.178;11.716;2022-09-09T11:52:40;2.08;;;0.60;;
26163;SDS011;13914;48.178;11.716;2022-09-09T11:57:58;2.83;;;0.40;;
26163;SDS011;13914;48.178;11.716;2022-09-09T12:00:49;6.10;;;0.50;;
26163;SDS011;13914;48.178;11.716;2022-09-09T12:09:08;3.83;;;0.43;;
26163;SDS011;13914;48.178;11.716;2022-09-09T12:11:44;1.15;;;0.38;;
26163;SDS011;13914;48.178;11.716;2022-09-09T12:14:34;5.38;;;0.65;;
26163;SDS011;13914;48.178;11.716;2022-09-09T12:17:10;1.08;;;0.45;;
26163;SDS011;13914;48.178;11.716;2022-09-09T12:26:02;4.85;;;0.43;;
26163;SDS011;13914;48.178;11.716;2022-09-09T12:31:31;2.95;;;0.30;;
26163;SDS011;13914;48.178;11.716;2022-09-09T12:34:11;5.72;;;0.52;;
26163;SDS011;13914;48.178;11.716;2022-09-09T12:40:28;2.45;;;0.35;;
26163;SDS011;13914;48.178;11.716;2022-09-09T12:42:57;4.30;;;0.40;;
26163;SDS011;13914;48.178;11.716;2022-09-09T12:45:26;6.72;;;0.40;;
26163;SDS011;13914;48.178;11.716;2022-09-09T12:50:26;2.78;;;0.50;;
26163;SDS011;13914;48.178;11.716;2022-09-09T12:53:01;5.13;;;0.30;;
26163;SDS011;13914;48.178;11.716;2022-09-09T12:55:48;1.35;;;0.32;;
26163;SDS011;13914;48.178;11.716;2022-09-09T12:58:17;2.00;;;0.30;;
26163;SDS011;13914;48.178;11.716;2022-09-09T13:00:49;1.40;;;0.32;;
26163;SDS011;13914;48.178;11.716;2022-09-09T13:03:21;2.53;;;0.30;;
26163;SDS011;13914;48.178;11.716;2022-09-09T13:05:48;4.85;;;0.50;;
26163;SDS011;13914;48.178;11.716;2022-09-09T13:08:15;1.48;;;0.40;;
26163;SDS011;13914;48.178;11.716;2022-09-09T13:10:49;3.55;;;0.57;;
26163;SDS011;13914;48.178;11.716;2022-09-09T13:13:24;2.15;;;0.30;;
26163;SDS011;13914;48.178;11.716;2022-09-09T13:16:04;1.30;;;0.40;;
26163;SDS011;13914;48.178;11.716;2022-09-09T13:18:36;2.08;;;0.28;;
26163;SDS011;13914;48.178;11.716;2022-09-09T13:21:05;3.15;;;0.30;;
26163;SDS011;13914;48.178;11.716;2022-09-09T13:23:33;2.50;;;0.75;;
26163;SDS011;13914;48.178;11.716;2022-09-09T13:28:32;0.75;;;0.30;;
26163;SDS011;13914;48.178;11.716;2022-09-09T13:31:04;0.88;;;0.40;;
26163;SDS011;13914;48.178;11.716;2022-09-09T13:33:43;1.70;;;0.20;;
26163;SDS011;13914;48.178;11.716;2022-09-09T13:36:09;4.22;;;0.50;;
26163;SDS011;13914;48.178;11.716;2022-09-09T13:38:38;4.40;;;0.30;;
26163;SDS011;13914;48.178;11.716;2022-09-09T13:41:21;2.15;;;0.38;;
26163;SDS011;13914;48.178;11.716;2022-09-09T13:43:50;1.05;;;0.40;;
26163;SDS011;13914;48.178;11.716;2022-09-09T13:51:44;2.28;;;0.30;;
26163;SDS011;13914;48.178;11.716;2022-09-09T13:54:13;1.25;;;0.28;;
26163;SDS011;13914;48.178;11.716;2022-09-09T13:56:41;1.67;;;0.30;;
26163;SDS011;13914;48.178;11.716;2022-09-09T13:59:12;4.85;;;0.55;;
26163;SDS011;13914;48.178;11.716;2022-09-09T14:01:46;4.22;;;0.30;;
26163;SDS011;13914;48.178;11.716;2022-09-09T14:04:14;0.82;;;0.20;;
26163;SDS011;13914;48.178;11.716;2022-09-09T14:06:40;0.32;;;0.22;;
26163;SDS011;13914;48.178;11.716;2022-09-09T14:09:07;2.50;;;0.30;;
26163;SDS011;13914;48.178;11.716;2022-09-09T14:11:38;4.75;;;0.63;;
26163;SDS011;13914;48.178;11.716;2022-09-09T14:14:05;4.95;;;0.20;;
26163;SDS011;13914;48.178;11.716;2022-09-09T14:16:31;4.80;;;0.57;;
26163;SDS011;13914;48.178;11.716;2022-09-09T14:18:57;4.80;;;0.40;;
26163;SDS011;13914;48.178;11.716;2022-09-09T14:23:51;7.22;;;0.50;;
26163;SDS011;13914;48.178;11.716;2022-09-09T14:26:23;2.97;;;0.30;;
26163;SDS011;13914;48.178;11.716;2022-09-09T14:28:49;4.93;;;0.30;;
26163;SDS011;13914;48.178;11.716;2022-09-09T14:31:16;5.38;;;0.30;;
26163;SDS011;13914;48.178;11.716;2022-09-09T14:36:09;3.05;;;0.40;;
26163;SDS011;13914;48.178;11.716;2022-09-09T14:38:36;9.80;;;0.85;;
26163;SDS011;13914;48.178;11.716;2022-09-09T14:41:14;3.63;;;0.45;;
26163;SDS011;13914;48.178;11.716;2022-09-09T14:43:42;6.55;;;0.90;;
26163;SDS011;13914;48.178;11.716;2022-09-09T14:46:09;5.25;;;0.50;;
26163;SDS011;13914;48.178;11.716;2022-09-09T14:48:37;2.78;;;0.80;;
26163;SDS011;13914;48.178;11.716;2022-09-09T14:51:09;8.70;;;0.65;;
26163;SDS011;13914;48.178;11.716;2022-09-09T14:53:38;6.70;;;0.95;;
26163;SDS011;13914;48.178;11.716;2022-09-09T14:56:05;8.45;;;0.82;;
26163;SDS011;13914;48.178;11.716;2022-09-09T14:58:43;16.50;;;0.95;;
26163;SDS011;13914;48.178;11.716;2022-09-09T15:01:12;16.80;;;0.73;;
26163;SDS011;13914;48.178;11.716;2022-09-09T15:03:44;7.55;;;1.42;;
26163;SDS011;13914;48.178;11.716;2022-09-09T15:06:16;17.80;;;1.10;;
26163;SDS011;13914;48.178;11.716;2022-09-09T15:08:43;9.07;;;1.00;;
26163;SDS011;13914;48.178;11.716;2022-09-09T15:11:10;13.82;;;1.48;;
26163;SDS011;13914;48.178;11.716;2022-09-09T15:13:38;10.10;;;0.80;;
26163;SDS011;13914;48.178;11.716;2022-09-09T15:16:06;10.88;;;0.70;;
26163;SDS011;13914;48.178;11.716;2022-09-09T15:18:35;20.38;;;1.17;;
26163;SDS011;13914;48.178;11.716;2022-09-09T15:21:04;14.25;;;1.10;;
26163;SDS011;13914;48.178;11.716;2022-09-09T15:23:34;3.50;;;0.60;;
26163;SDS011;13914;48.178;11.716;2022-09-09T15:26:00;9.95;;;0.88;;
26163;SDS011;13914;48.178;11.716;2022-09-09T15:28:27;8.73;;;0.60;;
26163;SDS011;13914;48.178;11.716;2022-09-09T15:35:46;18.10;;;1.92;;
26163;SDS011;13914;48.178;11.716;2022-09-09T15:38:12;8.63;;;1.10;;
26163;SDS011;13914;48.178;11.716;2022-09-09T15:40:39;8.85;;;0.90;;
26163;SDS011;13914;48.178;11.716;2022-09-09T15:43:05;11.23;;;0.85;;
26163;SDS011;13914;48.178;11.716;2022-09-09T15:45:33;10.98;;;0.73;;
26163;SDS011;13914;48.178;11.716;2022-09-09T15:47:59;12.38;;;1.65;;
26163;SDS011;13914;48.178;11.716;2022-09-09T15:50:26;7.07;;;0.68;;
26163;SDS011;13914;48.178;11.716;2022-09-09T15:52:54;11.38;;;0.82;;
26163;SDS011;13914;48.178;11.716;2022-09-09T15:55:20;8.07;;;1.73;;
26163;SDS011;13914;48.178;11.716;2022-09-09T16:00:12;10.68;;;1.05;;
26163;SDS011;13914;48.178;11.716;2022-09-09T16:02:39;7.80;;;0.88;;
26163;SDS011;13914;48.178;11.716;2022-09-09T16:05:05;6.75;;;0.73;;
26163;SDS011;13914;48.178;11.716;2022-09-09T16:07:31;6.97;;;0.70;;
26163;SDS011;13914;48.178;11.716;2022-09-09T16:09:57;16.38;;;0.90;;
26163;SDS011;13914;48.178;11.716;2022-09-09T16:12:22;13.48;;;0.82;;
26163;SDS011;13914;48.178;11.716;2022-09-09T16:14:48;19.88;;;1.45;;
26163;SDS011;13914;48.178;11.716;2022-09-09T16:17:14;19.85;;;1.48;;
26163;SDS011;13914;48.178;11.716;2022-09-09T16:19:40;12.05;;;1.33;;
26163;SDS011;13914;48.178;11.716;2022-09-09T16:22:06;12.73;;;1.30;;
26163;SDS011;13914;48.178;11.716;2022-09-09T16:24:32;14.38;;;1.35;;
26163;SDS011;13914;48.178;11.716;2022-09-09T16:26:58;8.02;;;0.80;;
26163;SDS011;13914;48.178;11.716;2022-09-09T16:29:24;13.02;;;0.90;;
26163;SDS011;13914;48.178;11.716;2022-09-09T16:31:52;11.60;;;1.80;;
26163;SDS011;13914;48.178;11.716;2022-09-09T16:34:19;13.40;;;1.10;;
26163;SDS011;13914;48.178;11.716;2022-09-09T16:36:46;9.30;;;0.90;;
26163;SDS011;13914;48.178;11.716;2022-09-09T16:39:17;14.85;;;0.82;;
26163;SDS011;13914;48.178;11.716;2022-09-09T16:41:45;14.95;;;0.93;;
26163;SDS011;13914;48.178;11.716;2022-09-09T16:44:13;7.28;;;1.05;;
26163;SDS011;13914;48.178;11.716;2022-09-09T16:46:43;12.52;;;1.10;;
26163;SDS011;13914;48.178;11.716;2022-09-09T16:49:11;11.25;;;0.80;;
26163;SDS011;13914;48.178;11.716;2022-09-09T16:51:44;5.47;;;0.52;;
26163;SDS011;13914;48.178;11.716;2022-09-09T16:54:12;4.43;;;0.40;;
26163;SDS011;13914;48.178;11.716;2022-09-09T16:56:41;9.95;;;1.02;;
26163;SDS011;13914;48.178;11.716;2022-09-09T16:59:09;10.98;;;0.88;;
26163;SDS011;13914;48.178;11.716;2022-09-09T17:01:42;11.35;;;1.35;;
26163;SDS011;13914;48.178;11.716;2022-09-09T17:04:14;6.25;;;0.60;;
26163;SDS011;13914;48.178;11.716;2022-09-09T17:06:48;11.60;;;1.05;;
26163;SDS011;13914;48.178;11.716;2022-09-09T17:09:16;16.40;;;1.15;;
26163;SDS011;13914;48.178;11.716;2022-09-09T17:11:44;13.57;;;1.50;;
26163;SDS011;13914;48.178;11.716;2022-09-09T17:14:11;13.38;;;1.13;;
26163;SDS011;13914;48.178;11.716;2022-09-09T17:16:41;10.25;;;0.88;;
26163;SDS011;13914;48.178;11.716;2022-09-09T17:21:34;19.17;;;2.15;;
26163;SDS011;13914;48.178;11.716;2022-09-09T17:24:00;8.45;;;0.80;;
26163;SDS011;13914;48.178;11.716;2022-09-09T17:26:27;17.40;;;1.05;;
26163;SDS011;13914;48.178;11.716;2022-09-09T17:28:56;16.95;;;1.35;;
26163;SDS011;13914;48.178;11.716;2022-09-09T17:31:26;8.95;;;0.80;;
26163;SDS011;13914;48.178;11.716;2022-09-09T17:33:53;12.82;;;1.00;;
26163;SDS011;13914;48.178;11.716;2022-09-09T17:36:24;13.82;;;0.90;;
26163;SDS011;13914;48.178;11.716;2022-09-09T17:38:53;11.63;;;1.00;;
26163;SDS011;13914;48.178;11.716;2022-09-09T17:41:21;8.77;;;0.90;;
26163;SDS011;13914;48.178;11.716;2022-09-09T17:43:50;14.00;;;1.10;;
26163;SDS011;13914;48.178;11.716;2022-09-09T17:46:18;12.57;;;0.60;;
26163;SDS011;13914;48.178;11.716;2022-09-09T17:48:56;12.85;;;0.90;;
26163;SDS011;13914;48.178;11.716;2022-09-09T17:54:06;14.88;;;1.05;;
26163;SDS011;13914;48.178;11.716;2022-09-09T17:56:36;16.60;;;1.08;;
26163;SDS011;13914;48.178;11.716;2022-09-09T17:59:03;7.18;;;0.90;;
26163;SDS011;13914;48.178;11.716;2022-09-09T18:01:32;13.77;;;1.00;;
26163;SDS011;13914;48.178;11.716;2022-09-09T18:04:02;16.08;;;1.20;;
26163;SDS011;13914;48.178;11.716;2022-09-09T18:06:33;15.55;;;1.00;;